Time;durP1;ratioP1;P1;durP2;ratioP2;P2;SDS_P1;SDS_P2;PMS_P1;PMS_P2;Temp;Humidity;BMP_temperature;BMP_pressure;BME280_temperature;BME280_humidity;BME280_pressure;Samples;Min_cycle;Max_cycle;Signal;HPM_P1;HPM_P2
2021/03/16 00:02:19;;;;;;;7.40;4.20;;;;;;;6.58;87.97;97323.20;1717242;83;21626;-88
2021/03/16 00:04:48;;;;;;;4.50;2.20;;;;;;;6.61;88.06;97322.27;1699107;79;21184;-87
2021/03/16 00:07:21;;;;;;;7.30;3.02;;;;;;;6.62;87.76;97326.52;1765751;79;21139;-84
2021/03/16 00:09:49;;;;;;;9.25;5.00;;;;;;;6.64;87.98;97324.26;1760190;79;21210;-84
2021/03/16 00:12:16;;;;;;;6.28;2.10;;;;;;;6.64;87.40;97328.59;1751008;79;21138;-90
2021/03/16 00:14:43;;;;;;;1.92;1.10;;;;;;;6.61;87.56;97333.43;1781788;80;21608;-89
2021/03/16 00:17:11;;;;;;;3.58;1.42;;;;;;;6.64;87.53;97335.05;1781165;80;21142;-90
2021/03/16 00:19:38;;;;;;;2.05;1.17;;;;;;;6.64;87.54;97335.05;1777985;80;21578;-90
2021/03/16 00:22:08;;;;;;;2.15;1.20;;;;;;;6.61;87.19;97328.72;1752904;80;22225;-90
2021/03/16 00:24:36;;;;;;;2.00;1.12;;;;;;;6.60;87.17;97331.73;1758872;79;21192;-90
2021/03/16 00:27:04;;;;;;;1.30;0.98;;;;;;;6.55;86.64;97334.49;1757549;79;21559;-88
2021/03/16 00:29:31;;;;;;;1.72;1.00;;;;;;;6.47;86.52;97336.52;1757377;81;21283;-89
2021/03/16 00:31:59;;;;;;;2.05;1.25;;;;;;;6.42;87.13;97337.12;1706872;83;21988;-89
2021/03/16 00:34:26;;;;;;;3.40;1.40;;;;;;;6.37;87.62;97334.72;1687640;83;21178;-89
2021/03/16 00:36:53;;;;;;;1.98;1.15;;;;;;;6.34;87.42;97333.98;1692110;83;21192;-90
2021/03/16 00:39:20;;;;;;;1.87;1.00;;;;;;;6.32;87.30;97340.94;1757274;81;21202;-90
2021/03/16 00:41:48;;;;;;;1.57;1.00;;;;;;;6.27;87.71;97336.41;1722499;83;21594;-89
2021/03/16 00:44:15;;;;;;;2.75;1.40;;;;;;;6.24;86.92;97342.95;1699991;84;21185;-91
2021/03/16 00:46:43;;;;;;;2.40;1.10;;;;;;;6.17;87.59;97334.15;1696107;84;21789;-89
2021/03/16 00:49:11;;;;;;;2.42;1.20;;;;;;;6.14;87.27;97343.27;1728463;79;21137;-89
2021/03/16 00:51:38;;;;;;;1.98;1.22;;;;;;;6.13;87.41;97335.16;1736141;82;21209;-90
2021/03/16 00:54:06;;;;;;;4.45;1.30;;;;;;;6.13;86.21;97337.73;1739378;81;21319;-83
2021/03/16 00:56:34;;;;;;;2.72;1.45;;;;;;;6.09;87.42;97336.61;1739410;81;21293;-85
2021/03/16 00:59:01;;;;;;;2.42;1.17;;;;;;;6.10;87.57;97339.12;1690155;81;21464;-87
2021/03/16 01:01:28;;;;;;;2.47;1.17;;;;;;;6.12;86.85;97334.74;1698370;84;21201;-86
2021/03/16 01:03:56;;;;;;;3.02;1.50;;;;;;;6.09;87.79;97335.33;1683715;82;21181;-82
2021/03/16 01:06:23;;;;;;;3.77;1.57;;;;;;;6.12;87.23;97335.20;1691199;84;21872;-84
2021/03/16 01:08:52;;;;;;;3.50;1.20;;;;;;;6.12;87.62;97330.88;1707444;84;21204;-83
2021/03/16 01:11:19;;;;;;;2.10;1.05;;;;;;;6.14;87.58;97334.23;1670346;86;21619;-83
2021/03/16 01:13:47;;;;;;;1.47;1.02;;;;;;;6.16;87.72;97336.31;1697826;84;21188;-84
2021/03/16 01:16:33;;;;;;;1.50;0.90;;;;;;;6.16;87.90;97333.73;1692895;84;21597;-88
2021/03/16 01:19:19;;;;;;;;;;;;;;;6.14;88.34;97328.25;1681333;82;21237;-84
2021/03/16 01:21:47;;;;;;;1.80;0.95;;;;;;;6.19;87.34;97334.09;1678266;83;20137;-84
2021/03/16 01:24:16;;;;;;;1.65;1.00;;;;;;;6.16;87.13;97331.16;1703076;81;21758;-84
2021/03/16 01:26:44;;;;;;;1.75;1.10;;;;;;;6.12;87.37;97325.71;1676917;82;21212;-85
2021/03/16 01:29:13;;;;;;;1.40;0.95;;;;;;;6.14;87.59;97333.41;1703635;81;21624;-88
2021/03/16 01:31:40;;;;;;;3.22;1.05;;;;;;;6.13;87.18;97331.73;1709083;83;21195;-90
2021/03/16 01:34:08;;;;;;;2.20;1.10;;;;;;;6.13;87.29;97327.88;1709317;83;21159;-87
2021/03/16 01:36:35;;;;;;;2.62;1.20;;;;;;;6.11;86.39;97333.08;1721467;83;21629;-90
2021/03/16 01:39:04;;;;;;;2.75;1.00;;;;;;;6.06;86.43;97331.09;1718303;83;21178;-85
2021/03/16 01:41:32;;;;;;;1.82;0.98;;;;;;;6.02;86.87;97340.30;1799827;79;21607;-89
2021/03/16 01:43:59;;;;;;;1.32;0.90;;;;;;;5.97;86.53;97335.30;1780464;79;21169;-88
2021/03/16 01:46:26;;;;;;;2.10;1.05;;;;;;;5.95;87.32;97342.25;1775766;79;21121;-88
2021/03/16 01:48:54;;;;;;;2.33;1.10;;;;;;;5.94;87.42;97337.95;1804881;79;21135;-87
2021/03/16 01:51:21;;;;;;;2.90;1.22;;;;;;;5.93;86.40;97350.46;1805776;79;21619;-88
2021/03/16 01:53:48;;;;;;;2.52;1.32;;;;;;;5.88;87.61;97342.02;1777147;80;21198;-89
2021/03/16 01:56:19;;;;;;;1.77;0.82;;;;;;;5.80;88.28;97340.99;1788487;79;21178;-90
2021/03/16 01:59:06;;;;;;;1.27;0.78;;;;;;;5.78;87.81;97338.46;1799567;79;21236;-86
2021/03/16 02:02:06;;;;;;;1.82;1.00;;;;;;;5.79;87.92;97339.33;1838818;78;21130;-85
2021/03/16 02:04:52;;;;;;;1.90;0.98;;;;;;;5.80;87.79;97345.31;1696680;81;21161;-90
2021/03/16 02:08:20;;;;;;;2.75;1.17;;;;;;;5.83;86.60;97341.33;1748079;81;21146;-87
2021/03/16 02:11:48;;;;;;;4.42;1.45;;;;;;;5.83;87.51;97343.91;1700457;82;21251;-86
2021/03/16 02:14:44;;;;;;;2.52;1.00;;;;;;;5.85;87.19;97345.98;1723568;83;21134;-87
2021/03/16 02:17:35;;;;;;;1.87;0.90;;;;;;;5.87;87.00;97343.77;1725370;77;21261;-88
2021/03/16 02:20:58;;;;;;;0.98;0.88;;;;;;;5.93;86.95;97348.72;1776617;81;21721;-88
2021/03/16 02:24:20;;;;;;;3.92;1.22;;;;;;;5.96;86.87;97346.50;1723435;79;21180;-90
2021/03/16 02:27:36;;;;;;;4.60;1.57;;;;;;;5.98;86.68;97357.16;1704526;78;21170;-90
2021/03/16 02:30:26;;;;;;;6.78;2.15;;;;;;;5.96;86.59;97360.23;1773556;78;21187;-90
2021/03/16 02:33:17;;;;;;;10.53;3.22;;;;;;;5.92;86.89;97356.50;1802459;78;21254;-85
2021/03/16 02:36:06;;;;;;;9.85;3.10;;;;;;;5.87;87.20;97360.95;1802370;78;21112;-84
2021/03/16 02:38:56;;;;;;;6.42;2.27;;;;;;;5.85;87.71;97360.17;1692386;81;21347;-88
2021/03/16 02:41:47;;;;;;;4.85;2.47;;;;;;;5.84;86.04;97359.79;1721062;80;21166;-88
2021/03/16 02:44:34;;;;;;;5.30;1.67;;;;;;;5.77;86.46;97366.90;1753760;80;21319;-89
2021/03/16 02:47:25;;;;;;;1.80;1.02;;;;;;;5.70;86.27;97363.66;1731432;83;21624;-88
2021/03/16 02:50:14;;;;;;;3.67;1.37;;;;;;;5.64;85.76;97372.89;1721228;80;21194;-89
2021/03/16 02:53:03;;;;;;;3.47;1.07;;;;;;;5.57;86.13;97372.69;1699367;84;21167;-88
2021/03/16 02:55:51;;;;;;;6.08;1.22;;;;;;;5.50;86.36;97369.92;1764318;81;21148;-90
2021/03/16 02:58:40;;;;;;;1.52;0.68;;;;;;;5.43;86.27;97373.58;1683666;85;21145;-91
2021/03/16 03:01:32;;;;;;;1.35;0.65;;;;;;;5.41;85.38;97370.21;1716703;82;21233;-91
2021/03/16 03:04:22;;;;;;;1.75;0.80;;;;;;;5.34;85.94;97368.28;1753478;80;21158;-90
2021/03/16 03:07:13;;;;;;;0.70;0.50;;;;;;;5.32;85.68;97374.77;1671767;84;21169;-90
2021/03/16 03:10:01;;;;;;;1.42;0.85;;;;;;;5.30;86.02;97370.11;1720282;79;21150;-89
2021/03/16 03:12:46;;;;;;;1.57;0.75;;;;;;;5.28;85.94;97376.22;1707999;81;21196;-88
2021/03/16 03:15:33;;;;;;;0.78;0.60;;;;;;;5.26;86.34;97380.13;1723593;82;21141;-89
2021/03/16 03:18:20;;;;;;;2.45;0.78;;;;;;;5.26;86.47;97387.02;1699365;79;21187;-88
2021/03/16 03:21:19;;;;;;;0.90;0.72;;;;;;;5.31;86.27;97389.85;1647827;87;21181;-89
2021/03/16 03:24:10;;;;;;;4.60;1.60;;;;;;;5.29;86.40;97392.92;1721490;82;21129;-87
2021/03/16 03:27:07;;;;;;;2.00;1.05;;;;;;;5.20;87.01;97395.77;1696736;82;21582;-87
2021/03/16 03:29:55;;;;;;;2.62;1.22;;;;;;;5.24;86.81;97399.94;1655345;82;21334;-88
2021/03/16 03:32:42;;;;;;;2.85;1.10;;;;;;;5.28;86.28;97401.98;1728317;82;21187;-90
2021/03/16 03:35:32;;;;;;;3.50;0.90;;;;;;;5.23;86.33;97406.42;1721395;81;21163;-89
2021/03/16 03:38:24;;;;;;;7.00;2.40;;;;;;;5.23;85.39;97405.97;1719918;83;21200;-91
2021/03/16 03:41:11;;;;;;;11.45;2.98;;;;;;;5.13;86.19;97411.00;1637291;87;21227;-89
2021/03/16 03:43:57;;;;;;;9.98;2.65;;;;;;;5.06;86.16;97418.53;1698616;79;21152;-89
2021/03/16 03:46:46;;;;;;;4.15;1.55;;;;;;;5.01;85.43;97423.80;1741834;81;21254;-90
2021/03/16 03:49:37;;;;;;;2.95;1.25;;;;;;;4.90;86.57;97425.87;1709376;83;22218;-88
2021/03/16 03:52:23;;;;;;;4.80;1.50;;;;;;;4.86;86.33;97427.68;1716473;80;21185;-88
2021/03/16 03:55:21;;;;;;;5.37;1.60;;;;;;;4.88;85.50;97431.51;1729182;81;21189;-88
2021/03/16 03:58:09;;;;;;;5.60;1.75;;;;;;;4.67;86.41;97441.50;1746932;80;21192;-88
2021/03/16 04:01:03;;;;;;;2.90;1.22;;;;;;;4.66;86.61;97437.71;1651330;87;21317;-88
2021/03/16 04:03:49;;;;;;;2.00;1.10;;;;;;;4.66;86.72;97444.98;1655998;83;21327;-88
2021/03/16 04:06:36;;;;;;;2.98;1.25;;;;;;;4.63;86.97;97446.79;1701990;83;21205;-90
2021/03/16 04:09:23;;;;;;;4.20;1.55;;;;;;;4.56;87.57;97446.96;1689255;81;21765;-88
2021/03/16 04:12:11;;;;;;;3.87;1.70;;;;;;;4.58;87.49;97441.33;1699830;81;21282;-83
2021/03/16 04:14:57;;;;;;;7.78;2.17;;;;;;;4.60;87.47;97447.73;1652811;82;21197;-91
2021/03/16 04:17:47;;;;;;;13.53;3.65;;;;;;;4.54;87.71;97453.88;1687354;83;21150;-90
2021/03/16 04:20:35;;;;;;;7.37;2.67;;;;;;;4.49;87.58;97454.89;1640153;87;21180;-89
2021/03/16 04:23:23;;;;;;;6.87;2.30;;;;;;;4.38;87.94;97452.61;1733094;80;21148;-90
2021/03/16 04:26:09;;;;;;;7.50;2.37;;;;;;;4.38;86.84;97452.16;1720188;81;21307;-88
2021/03/16 04:28:56;;;;;;;7.83;2.37;;;;;;;4.31;87.56;97458.34;1701919;83;21138;-87
2021/03/16 04:31:42;;;;;;;5.53;2.08;;;;;;;4.30;86.48;97464.84;1692169;81;21756;-89
2021/03/16 04:34:30;;;;;;;2.42;1.10;;;;;;;4.20;88.03;97468.09;1777198;80;21336;-86
2021/03/16 04:37:33;;;;;;;2.45;1.25;;;;;;;4.18;87.77;97471.14;1739991;81;21173;-88
2021/03/16 04:40:21;;;;;;;2.10;1.00;;;;;;;4.14;87.98;97468.25;1753427;82;21291;-86
2021/03/16 04:43:24;;;;;;;3.65;1.30;;;;;;;4.07;88.24;97464.13;1755096;80;21183;-84
2021/03/16 04:46:09;;;;;;;3.80;1.27;;;;;;;4.12;87.53;97466.16;1740029;80;21189;-89
2021/03/16 04:49:07;;;;;;;4.45;1.57;;;;;;;4.10;88.43;97464.91;1703990;84;21197;-81
2021/03/16 04:51:54;;;;;;;2.37;1.40;;;;;;;3.91;88.09;97436.22;1706507;83;21318;-84
2021/03/16 04:54:57;;;;;;;3.75;1.72;;;;;;;4.10;87.69;97463.61;1710351;80;21153;-88
2021/03/16 04:57:45;;;;;;;4.35;2.05;;;;;;;4.00;88.41;97466.02;1674195;84;21186;-91
2021/03/16 05:00:32;;;;;;;5.75;2.00;;;;;;;3.96;88.45;97464.41;1659933;86;21573;-91
2021/03/16 05:03:20;;;;;;;3.67;1.90;;;;;;;3.93;89.11;97467.88;1638767;87;21143;-85
2021/03/16 05:06:06;;;;;;;3.85;1.65;;;;;;;3.91;87.89;97473.95;1705173;82;21136;-84
2021/03/16 05:08:53;;;;;;;4.28;1.92;;;;;;;3.90;87.77;97473.11;1730562;82;21279;-86
2021/03/16 05:11:46;;;;;;;3.23;1.53;;;;;;;3.74;88.93;97481.62;1710952;83;21602;-88
2021/03/16 05:14:49;;;;;;;4.35;1.87;;;;;;;3.73;88.34;97491.94;1752341;80;21254;-84
2021/03/16 05:17:35;;;;;;;2.95;1.65;;;;;;;3.65;88.19;97495.97;1733260;80;21284;-82
2021/03/16 05:20:39;;;;;;;3.25;1.87;;;;;;;3.59;88.23;97493.55;1715915;78;21201;-80
2021/03/16 05:23:25;;;;;;;3.12;1.50;;;;;;;3.53;88.31;97487.27;1688329;82;21126;-83
2021/03/16 05:26:11;;;;;;;3.55;1.92;;;;;;;3.57;87.67;97488.88;1707771;82;21324;-86
2021/03/16 05:28:59;;;;;;;4.70;1.90;;;;;;;3.48;87.95;97489.94;1725468;79;21697;-84
2021/03/16 05:31:46;;;;;;;3.33;1.70;;;;;;;3.39;87.67;97481.98;1729377;83;21427;-84
2021/03/16 05:34:32;;;;;;;6.30;1.77;;;;;;;3.42;87.77;97499.48;1730851;80;21115;-86
2021/03/16 05:37:17;;;;;;;3.15;1.80;;;;;;;3.35;88.49;97500.08;1676220;80;21194;-82
2021/03/16 05:40:05;;;;;;;5.47;1.60;;;;;;;3.32;88.11;97497.56;1732083;79;21203;-81
2021/03/16 05:42:52;;;;;;;4.40;1.90;;;;;;;3.22;88.73;97502.48;1718302;81;21138;-81
2021/03/16 05:48:51;;;;;;;4.53;1.85;;;;;;;3.24;88.47;97503.30;1733184;82;21160;-82
2021/03/16 05:51:56;;;;;;;4.42;1.82;;;;;;;3.19;88.32;97509.83;1735202;80;21614;-82
2021/03/16 05:58:24;;;;;;;3.30;1.60;;;;;;;3.22;88.11;97507.17;1690595;81;21184;-86
2021/03/16 06:01:24;;;;;;;2.08;1.27;;;;;;;3.13;88.48;97514.65;1715372;84;21278;-88
2021/03/16 06:04:28;;;;;;;3.17;1.40;;;;;;;3.08;88.83;97521.59;1676503;83;21187;-89
2021/03/16 06:07:20;;;;;;;3.10;1.25;;;;;;;3.12;87.97;97524.95;1699274;81;21213;-86
2021/03/16 06:23:15;;;;;;;4.70;1.45;;;;;;;3.02;88.41;97531.14;1720224;81;21211;-84
2021/03/16 06:26:21;;;;;;;1.57;1.00;;;;;;;3.04;89.09;97538.38;1640329;82;21288;-80
2021/03/16 06:32:16;;;;;;;3.42;1.62;;;;;;;3.05;88.75;97550.36;1683737;83;21113;-84
2021/03/16 06:35:18;;;;;;;2.45;1.40;;;;;;;3.07;88.99;97548.16;1686103;81;21183;-91
2021/03/16 06:39:03;;;;;;;2.17;1.20;;;;;;;3.08;88.50;97547.27;1706617;82;21098;-85
2021/03/16 06:42:40;;;;;;;2.52;1.47;;;;;;;3.07;88.58;97553.29;1694237;80;21166;-91
2021/03/16 06:46:03;;;;;;;3.92;1.50;;;;;;;3.06;89.33;97558.45;1668264;84;21785;-84
2021/03/16 06:53:06;;;;;;;4.55;2.42;;;;;;;3.04;88.88;97573.04;1679155;82;21201;-85
2021/03/16 06:56:15;;;;;;;2.22;1.20;;;;;;;3.06;89.71;97583.68;1672870;82;21217;-85
2021/03/16 06:59:31;;;;;;;1.43;1.00;;;;;;;3.01;88.91;97583.39;1732935;79;21195;31
2021/03/16 07:02:46;;;;;;;2.22;1.40;;;;;;;3.08;89.13;97578.52;1704132;80;22627;-84
2021/03/16 07:06:19;;;;;;;2.77;1.40;;;;;;;3.09;88.75;97574.64;1685030;80;21316;-86
2021/03/16 07:09:21;;;;;;;2.85;1.47;;;;;;;3.12;88.51;97568.59;1621259;84;22231;-87
2021/03/16 07:12:40;;;;;;;3.55;1.80;;;;;;;2.99;89.22;97576.55;1688493;82;21192;-90
2021/03/16 07:15:44;;;;;;;3.12;1.67;;;;;;;3.04;88.75;97579.45;1695889;83;21164;-84
2021/03/16 07:18:39;;;;;;;4.03;1.80;;;;;;;3.12;87.94;97587.86;1700465;83;21144;-83
2021/03/16 07:21:56;;;;;;;7.70;2.00;;;;;;;3.05;89.71;97593.56;1662513;83;21341;31
2021/03/16 07:25:00;;;;;;;6.40;1.70;;;;;;;3.16;88.66;97589.07;1642345;82;21178;-84
2021/03/16 07:27:52;;;;;;;4.03;2.10;;;;;;;3.20;88.98;97601.39;1665170;81;21221;-82
2021/03/16 07:30:41;;;;;;;3.45;1.62;;;;;;;3.22;88.80;97606.05;1674804;82;21190;-84
2021/03/16 07:33:46;;;;;;;2.50;1.70;;;;;;;3.26;89.05;97607.69;1696790;80;21264;-82
2021/03/16 07:37:14;;;;;;;5.40;1.82;;;;;;;3.32;88.77;97611.86;1718592;81;21332;-82
2021/03/16 07:43:15;;;;;;;4.05;1.92;;;;;;;3.29;88.45;97603.79;1698560;83;21231;-88
2021/03/16 07:49:43;;;;;;;1.98;1.40;;;;;;;3.41;88.43;97615.99;1650194;79;21188;-83
2021/03/16 07:52:47;;;;;;;3.10;1.60;;;;;;;3.41;88.40;97615.99;1759802;81;21136;-84
2021/03/16 07:55:50;;;;;;;3.27;1.57;;;;;;;3.51;87.53;97613.19;1734921;80;21175;-82
2021/03/16 07:58:56;;;;;;;2.30;1.50;;;;;;;3.43;87.90;97614.23;1690989;80;21219;-83
2021/03/16 08:01:48;;;;;;;4.47;2.50;;;;;;;3.35;88.12;97612.66;1716054;81;21246;-84
2021/03/16 08:04:40;;;;;;;5.58;1.90;;;;;;;3.31;89.62;97618.73;1706556;81;21240;-86
2021/03/16 08:07:53;;;;;;;6.25;2.60;;;;;;;3.31;88.99;97619.17;1700294;81;21643;-88
2021/03/16 08:10:51;;;;;;;7.28;2.08;;;;;;;3.32;88.46;97625.98;1684522;80;21186;-82
2021/03/16 08:13:38;;;;;;;2.75;1.55;;;;;;;3.30;88.84;97626.05;1692561;81;21269;-82
2021/03/16 08:16:45;;;;;;;2.95;1.65;;;;;;;3.31;89.60;97629.45;1704046;84;21311;-84
2021/03/16 08:19:40;;;;;;;3.10;1.45;;;;;;;3.27;88.77;97628.66;1662645;80;21323;-83
2021/03/16 08:22:28;;;;;;;2.95;1.75;;;;;;;3.39;88.41;97630.14;1685473;82;21260;-85
2021/03/16 08:25:16;;;;;;;2.37;1.50;;;;;;;3.31;89.01;97638.00;1730074;80;21117;-85
2021/03/16 08:28:08;;;;;;;3.47;1.50;;;;;;;3.37;88.89;97636.59;1721058;81;21307;-82
2021/03/16 08:31:25;;;;;;;3.25;1.80;;;;;;;3.37;88.87;97639.61;1674478;81;21243;-83
2021/03/16 08:34:12;;;;;;;3.35;1.65;;;;;;;3.48;88.77;97646.67;1650037;85;21393;-87
2021/03/16 08:37:01;;;;;;;6.53;2.30;;;;;;;3.48;88.73;97640.66;1654834;86;21170;-89
2021/03/16 08:39:55;;;;;;;3.58;2.12;;;;;;;3.54;88.24;97640.54;1694743;84;21164;-90
2021/03/16 08:42:52;;;;;;;3.72;1.80;;;;;;;3.47;88.68;97638.98;1702000;80;21164;31
2021/03/16 08:45:38;;;;;;;2.55;1.40;;;;;;;3.55;88.02;97644.81;1639665;82;21698;-85
2021/03/16 08:48:28;;;;;;;3.42;1.72;;;;;;;3.51;87.68;97645.31;1679553;84;21111;-83
2021/03/16 09:13:44;;;;;;;2.72;1.42;;;;;;;3.77;87.19;97659.36;1795045;77;23145;-88
2021/03/16 09:16:32;;;;;;;3.85;1.90;;;;;;;3.71;86.92;97660.77;1719701;82;21298;-85
2021/03/16 09:19:22;;;;;;;3.95;1.80;;;;;;;3.76;87.30;97657.65;1732161;78;21482;-86
2021/03/16 09:22:26;;;;;;;8.50;1.92;;;;;;;3.67;87.88;97660.42;1736547;80;21180;-87
2021/03/16 09:25:51;;;;;;;2.92;1.62;;;;;;;3.69;87.82;97664.66;1662420;78;21745;-87
2021/03/16 09:29:11;;;;;;;6.93;2.07;;;;;;;3.65;88.00;97672.02;1726131;81;21153;-87
2021/03/16 09:32:02;;;;;;;3.55;1.67;;;;;;;3.65;87.86;97675.87;1719355;78;21196;-89
2021/03/16 09:34:48;;;;;;;7.10;2.30;;;;;;;3.61;87.98;97679.83;1712296;81;21650;-89
2021/03/16 09:38:02;;;;;;;4.03;2.30;;;;;;;3.68;87.89;97683.53;1693763;84;21737;-92
2021/03/16 09:41:10;;;;;;;4.37;2.08;;;;;;;3.70;86.92;97688.62;1626286;85;21293;-89
2021/03/16 09:47:27;;;;;;;4.55;2.40;;;;;;;3.59;88.22;97688.84;1715176;82;21884;-89
2021/03/16 09:50:27;;;;;;;5.40;2.30;;;;;;;3.54;88.22;97694.09;1707957;80;21339;-84
2021/03/16 09:53:15;;;;;;;5.30;2.50;;;;;;;3.56;88.34;97696.60;1753788;79;21341;-83
2021/03/16 09:55:45;;;;;;;4.50;2.52;;;;;;;3.69;87.83;97694.66;1750705;79;21130;-83
2021/03/16 09:58:22;;;;;;;5.10;2.27;;;;;;;3.65;88.70;97692.58;1760192;80;21579;-86
2021/03/16 10:01:12;;;;;;;5.22;2.40;;;;;;;3.71;88.27;97689.88;1670954;84;22261;-90
2021/03/16 10:04:03;;;;;;;3.33;1.90;;;;;;;3.76;88.38;97699.65;1655728;82;21518;-91
2021/03/16 10:06:34;;;;;;;2.85;1.67;;;;;;;3.89;87.46;97700.23;1666818;84;21169;-89
2021/03/16 10:09:23;;;;;;;3.25;2.00;;;;;;;3.79;88.01;97703.42;1687461;83;21147;-90
2021/03/16 10:15:27;;;;;;;3.27;1.90;;;;;;;3.81;87.79;97707.70;1659080;85;21346;-88
2021/03/16 10:17:58;;;;;;;3.30;1.87;;;;;;;3.96;87.66;97703.55;1661653;83;22079;-90
2021/03/16 10:20:32;;;;;;;3.17;2.02;;;;;;;3.88;86.94;97698.55;1683982;83;21164;-90
2021/03/16 10:23:22;;;;;;;5.90;2.40;;;;;;;4.02;87.68;97707.69;1762061;77;23142;31
2021/03/16 10:26:58;;;;;;;3.58;1.92;;;;;;;4.03;86.91;97708.95;1702461;82;21181;-93
2021/03/16 10:30:04;;;;;;;4.87;2.47;;;;;;;4.10;86.61;97705.79;1599356;89;21228;-91
2021/03/16 10:36:24;;;;;;;6.60;2.75;;;;;;;4.17;86.93;97713.80;1709123;83;21305;-91
2021/03/16 10:38:52;;;;;;;5.40;2.60;;;;;;;4.11;86.27;97714.77;1694829;84;21628;-90
2021/03/16 10:41:27;;;;;;;6.28;2.25;;;;;;;4.18;86.71;97723.22;1770307;79;21150;-90
2021/03/16 10:44:20;;;;;;;6.50;2.80;;;;;;;4.14;86.20;97717.73;1763047;80;21199;-86
2021/03/16 10:46:55;;;;;;;5.22;2.55;;;;;;;4.09;86.46;97712.67;1735305;79;21288;-92
2021/03/16 10:50:02;;;;;;;5.40;2.50;;;;;;;4.14;85.55;97709.58;1673370;80;21217;-89
2021/03/16 10:52:29;;;;;;;2.90;1.60;;;;;;;4.15;85.40;97715.11;1661718;84;21702;-83
2021/03/16 10:54:57;;;;;;;3.90;2.20;;;;;;;4.11;85.52;97716.05;1668483;84;21169;-82
2021/03/16 10:57:25;;;;;;;4.87;1.98;;;;;;;4.16;85.50;97723.25;1690369;84;21190;-88
2021/03/16 11:06:22;;;;;;;3.65;2.20;;;;;;;4.18;87.25;97720.66;1716625;79;21163;-92
2021/03/16 11:08:50;;;;;;;5.42;2.95;;;;;;;4.32;86.90;97721.19;1712568;83;21813;-90
2021/03/16 11:11:17;;;;;;;8.55;2.70;;;;;;;4.27;86.77;97722.16;1708715;83;21189;-88
2021/03/16 11:13:46;;;;;;;5.15;2.70;;;;;;;4.30;86.71;97720.38;1697540;83;21196;-90
2021/03/16 11:16:41;;;;;;;5.55;2.90;;;;;;;4.40;85.75;97726.17;1626917;83;21170;-93
2021/03/16 11:19:29;;;;;;;3.98;2.45;;;;;;;4.46;85.56;97729.89;1606271;85;21337;-93
2021/03/16 11:22:04;;;;;;;8.68;4.12;;;;;;;4.31;85.26;97726.36;1661248;85;21260;-89
2021/03/16 11:24:37;;;;;;;8.83;3.40;;;;;;;4.34;85.83;97724.58;1650305;84;21138;-84
2021/03/16 11:27:13;;;;;;;7.10;3.17;;;;;;;4.33;85.87;97734.89;1643128;85;21204;-87
2021/03/16 11:29:40;;;;;;;4.62;2.52;;;;;;;4.41;85.78;97728.30;1720864;82;21708;-89
2021/03/16 11:32:22;;;;;;;5.10;2.67;;;;;;;4.35;85.81;97727.98;1681244;81;21260;-90
2021/03/16 11:35:40;;;;;;;5.20;2.70;;;;;;;4.27;85.80;97730.72;1615570;84;21213;-91
2021/03/16 11:38:45;;;;;;;4.60;2.80;;;;;;;4.29;86.35;97727.67;1576926;86;21382;-90
2021/03/16 11:41:31;;;;;;;4.90;2.90;;;;;;;4.37;86.41;97733.95;1670998;81;21194;-92
2021/03/16 11:44:19;;;;;;;5.42;2.70;;;;;;;4.31;85.68;97732.80;1636454;85;21198;-92
2021/03/16 11:47:06;;;;;;;7.22;2.80;;;;;;;4.36;85.42;97723.27;1610314;84;21153;-93
2021/03/16 11:50:13;;;;;;;5.80;2.47;;;;;;;4.38;85.28;97727.94;1642107;86;21164;-92
2021/03/16 11:53:00;;;;;;;4.33;2.30;;;;;;;4.29;85.67;97728.96;1768357;81;21280;-90
2021/03/16 11:55:51;;;;;;;3.92;2.52;;;;;;;4.23;85.93;97730.38;1781561;76;21088;-89
2021/03/16 11:58:42;;;;;;;6.90;3.27;;;;;;;4.12;86.09;97730.63;1698299;83;21185;-87
2021/03/16 12:14:33;;;;;;;4.85;2.30;;;;;;;4.15;85.47;97729.70;1774071;80;22920;-91
2021/03/16 12:17:44;;;;;;;4.75;2.65;;;;;;;4.01;86.00;97733.01;1685697;82;21170;-89
2021/03/16 12:20:32;;;;;;;5.08;2.22;;;;;;;3.99;86.00;97738.17;1703906;84;21180;-93
2021/03/16 12:23:25;;;;;;;5.30;2.33;;;;;;;4.02;85.74;97730.83;1671937;81;21178;-89
2021/03/16 12:26:49;;;;;;;;;;;;;;;4.01;86.05;97741.56;1773026;78;21112;-87
2021/03/16 12:33:08;;;;;;;3.95;2.40;;;;;;;3.76;86.58;97745.05;1676345;84;21368;-91
2021/03/16 12:38:57;;;;;;;4.15;2.37;;;;;;;3.73;87.15;97743.84;1751025;81;21153;-89
2021/03/16 12:45:14;;;;;;;5.17;2.10;;;;;;;3.61;86.55;97750.06;1739401;79;21333;-86
2021/03/16 12:48:24;;;;;;;12.33;2.50;;;;;;;3.62;86.36;97758.61;1758374;79;21165;-87
2021/03/16 12:54:20;;;;;;;6.60;2.30;;;;;;;3.53;87.36;97761.76;1755962;78;21174;-81
2021/03/16 12:57:18;;;;;;;5.47;2.50;;;;;;;3.63;86.75;97762.44;1722345;82;21704;-85
2021/03/16 13:03:30;;;;;;;7.22;3.58;;;;;;;3.57;87.04;97772.84;1717993;82;21351;-92
2021/03/16 13:06:10;;;;;;;5.35;2.85;;;;;;;3.56;87.60;97780.12;1708931;82;21184;-86
2021/03/16 13:08:55;;;;;;;6.70;2.58;;;;;;;3.59;87.38;97774.94;1749143;79;21121;-88
2021/03/16 13:11:41;;;;;;;5.30;2.50;;;;;;;3.64;86.29;97778.29;1763682;78;21725;-83
2021/03/16 13:18:16;;;;;;;3.30;1.72;;;;;;;3.57;86.66;97787.81;1683277;82;21845;-85
2021/03/16 13:22:06;;;;;;;;;;;;;;;;;;;;;
2021/03/16 13:24:53;;;;;;;6.58;2.90;;;;;;;3.57;88.03;97786.97;1768643;78;21114;-88
2021/03/16 13:28:01;;;;;;;4.87;2.70;;;;;;;3.71;87.85;97793.15;1768532;80;21311;-85
2021/03/16 13:30:42;;;;;;;4.85;2.47;;;;;;;3.76;86.96;97793.48;1737196;78;21651;-89
2021/03/16 13:34:04;;;;;;;5.42;2.80;;;;;;;3.73;86.55;97796.53;1753252;78;21189;-92
2021/03/16 13:37:20;;;;;;;8.80;2.37;;;;;;;3.64;87.33;97808.26;1743587;79;21162;-90
2021/03/16 13:40:09;;;;;;;2.95;1.80;;;;;;;3.60;87.04;97810.03;1768637;79;21276;-84
2021/03/16 13:43:57;;;;;;;6.87;2.52;;;;;;;3.68;86.60;97813.75;1766722;78;21145;-87
2021/03/16 13:50:56;;;;;;;8.35;2.90;;;;;;;3.65;86.82;97822.82;1751100;78;21225;-82
2021/03/16 13:53:54;;;;;;;4.20;2.12;;;;;;;3.60;86.63;97820.31;1774935;79;21779;-92
2021/03/16 13:56:46;;;;;;;6.80;2.60;;;;;;;3.61;86.68;97828.45;1762409;79;21304;-88
2021/03/16 13:59:55;;;;;;;7.15;2.50;;;;;;;3.46;87.25;97829.98;1751504;78;21169;-90
2021/03/16 14:02:42;;;;;;;8.88;2.83;;;;;;;3.46;87.39;97824.43;1781544;79;21125;-84
2021/03/16 14:05:29;;;;;;;2.85;1.60;;;;;;;3.49;86.90;97828.66;1797792;79;21224;-84
2021/03/16 14:08:28;;;;;;;4.00;1.90;;;;;;;3.47;86.90;97825.27;1745332;77;21297;-87
2021/03/16 14:14:50;;;;;;;5.92;2.62;;;;;;;3.26;87.23;97796.47;1761397;79;21157;-92
2021/03/16 14:18:06;;;;;;;4.57;2.13;;;;;;;3.51;88.06;97842.33;1788815;76;22271;-87
2021/03/16 14:21:14;;;;;;;5.08;2.30;;;;;;;3.46;88.18;97831.27;1784645;78;21129;-85
2021/03/16 14:24:01;;;;;;;5.65;1.72;;;;;;;3.55;88.34;97842.24;1777825;76;21236;-88
2021/03/16 14:31:08;;;;;;;4.67;2.47;;;;;;;3.60;88.07;97842.16;1744680;79;21183;-91
2021/03/16 14:36:56;;;;;;;3.30;1.90;;;;;;;3.61;88.15;97842.58;1729065;82;21158;-91
2021/03/16 14:43:18;;;;;;;3.83;1.95;;;;;;;3.57;87.76;97855.91;1715917;77;21121;-86
2021/03/16 14:56:52;;;;;;;4.78;2.15;;;;;;;3.70;88.51;97857.85;1758082;79;21325;-90
2021/03/16 14:59:55;;;;;;;13.38;4.40;;;;;;;3.75;88.56;97860.34;1732293;82;21206;-89
2021/03/16 15:02:46;;;;;;;16.10;5.45;;;;;;;3.76;89.08;97865.45;1679515;83;21202;-84
2021/03/16 15:05:41;;;;;;;7.83;3.00;;;;;;;3.78;88.71;97863.70;1706305;79;21098;-92
2021/03/16 15:08:36;;;;;;;5.75;2.67;;;;;;;3.82;88.13;97868.36;1698998;80;21285;31
2021/03/16 15:48:09;;;;;;;6.08;2.90;;;;;;;3.59;88.60;97906.01;1771984;76;21122;-85
2021/03/16 15:51:06;;;;;;;3.90;2.30;;;;;;;3.61;88.88;97911.97;1715730;81;21345;-93
2021/03/16 16:10:32;;;;;;;4.60;2.20;;;;;;;3.47;89.47;97917.77;1750059;77;21157;-84
2021/03/16 16:13:18;;;;;;;3.75;2.20;;;;;;;3.46;89.57;97923.77;1751834;79;21300;-84
2021/03/16 16:16:04;;;;;;;6.22;2.65;;;;;;;3.43;90.06;97926.41;1800079;77;21286;-84
2021/03/16 16:18:51;;;;;;;6.17;2.90;;;;;;;3.44;90.16;97927.64;1775839;77;21298;-80
2021/03/16 16:21:37;;;;;;;6.70;2.98;;;;;;;3.54;88.81;97932.20;1759096;80;21280;-83
2021/03/16 16:24:22;;;;;;;6.67;2.40;;;;;;;3.45;90.32;97931.08;1765223;81;21230;-83
2021/03/16 16:27:08;;;;;;;9.23;3.40;;;;;;;3.52;89.70;97940.38;1761108;81;21217;-84
2021/03/16 16:33:17;;;;;;;11.97;7.72;;;;;;;3.51;90.53;97942.55;1754897;80;22000;-86
2021/03/16 16:36:18;;;;;;;12.85;5.47;;;;;;;3.56;89.66;97945.47;1758883;80;21169;-90
2021/03/16 16:39:18;;;;;;;9.08;4.08;;;;;;;3.58;89.16;97947.98;1758012;79;21145;-90
2021/03/16 16:42:08;;;;;;;18.67;7.28;;;;;;;3.58;89.72;97946.70;1751558;80;21241;-87
2021/03/16 16:45:11;;;;;;;;;;;;;;;3.61;89.64;97953.54;1792830;79;21553;-90